Time;durP1;ratioP1;P1;durP2;ratioP2;P2;SDS_P1;SDS_P2;PMS_P1;PMS_P2;Temp;Humidity;BMP_temperature;BMP_pressure;BME280_temperature;BME280_humidity;BME280_pressure;Samples;Min_cycle;Max_cycle;Signal;HPM_P1;HPM_P2
2021/01/20 00:02:22;;;;;;;;;;;11.80;99.90;;;;;;5013683;28;19936;-60
2021/01/20 00:04:48;;;;;;;;;;;11.80;99.90;;;;;;4984275;28;19940;-59
2021/01/20 00:07:16;;;;;;;;;;;11.80;99.90;;;;;;5015547;28;19936;-59
2021/01/20 00:09:43;;;;;;;;;;;11.80;99.90;;;;;;4996760;28;19937;-59
2021/01/20 00:12:10;;;;;;;;;;;11.90;99.90;;;;;;5002045;28;19925;-59
2021/01/20 00:14:36;;;;;;;;;;;11.90;99.90;;;;;;4980774;28;19944;-59
2021/01/20 00:17:03;;;;;;;;;;;11.90;99.90;;;;;;5012086;28;19929;-59
2021/01/20 00:19:30;;;;;;;;;;;11.80;99.90;;;;;;4999267;28;20583;-59
2021/01/20 00:21:56;;;;;;;;;;;11.80;99.90;;;;;;5005294;28;19941;-59
2021/01/20 00:24:24;;;;;;;;;;;11.80;99.90;;;;;;4997637;28;19934;-60
2021/01/20 00:26:51;;;;;;;;;;;11.80;99.90;;;;;;4999888;28;19932;-60
2021/01/20 00:29:18;;;;;;;;;;;11.80;99.90;;;;;;4990858;28;19933;-59
2021/01/20 00:31:44;;;;;;;;;;;11.90;99.90;;;;;;5001455;28;20463;-60
2021/01/20 00:34:11;;;;;;;;;;;11.90;99.90;;;;;;5000850;28;20019;-60
2021/01/20 00:36:38;;;;;;;;;;;11.90;99.90;;;;;;4994893;28;19952;-60
2021/01/20 00:39:04;;;;;;;;;;;12.00;99.90;;;;;;4998964;28;19972;-60
2021/01/20 00:41:32;;;;;;;;;;;12.00;99.90;;;;;;5016176;28;19944;-59
2021/01/20 00:43:59;;;;;;;;;;;12.00;99.90;;;;;;4997054;28;19944;-59
2021/01/20 00:46:25;;;;;;;;;;;12.00;99.90;;;;;;4982838;28;19925;-60
2021/01/20 00:48:52;;;;;;;;;;;12.00;99.90;;;;;;4999907;28;19932;-59
2021/01/20 00:51:18;;;;;;;;;;;11.90;99.90;;;;;;5012837;28;20709;-59
2021/01/20 00:53:45;;;;;;;;;;;11.90;99.90;;;;;;4997185;28;19929;-59
2021/01/20 00:56:12;;;;;;;;;;;11.90;99.90;;;;;;5015575;28;19951;-59
2021/01/20 00:58:39;;;;;;;;;;;11.90;99.90;;;;;;4998419;28;20400;-59
2021/01/20 01:01:06;;;;;;;;;;;11.90;99.90;;;;;;4983937;28;19937;-59
2021/01/20 01:03:33;;;;;;;;;;;12.00;99.90;;;;;;4986036;28;19925;-59
2021/01/20 01:05:59;;;;;;;;;;;12.00;99.90;;;;;;4995885;28;19969;-60
2021/01/20 01:08:27;;;;;;;;;;;12.00;99.90;;;;;;4997326;28;19944;-59
2021/01/20 01:10:53;;;;;;;;;;;12.00;99.90;;;;;;4995265;28;20023;-59
2021/01/20 01:13:20;;;;;;;;;;;12.00;99.90;;;;;;4999290;28;19937;-60
2021/01/20 01:15:48;;;;;;;;;;;12.00;99.90;;;;;;5000866;28;19929;-60
2021/01/20 01:18:14;;;;;;;;;;;12.00;99.90;;;;;;4984189;28;19933;-60
2021/01/20 01:20:41;;;;;;;;;;;12.00;99.90;;;;;;4996717;28;20447;-59
2021/01/20 01:23:08;;;;;;;;;;;12.00;99.90;;;;;;5014091;28;20317;-59
2021/01/20 01:25:35;;;;;;;;;;;12.00;99.90;;;;;;4999539;28;19933;-60
2021/01/20 01:28:09;;;;;;;;;;;12.00;99.90;;;;;;4995135;28;19925;-59
2021/01/20 01:30:36;;;;;;;;;;;11.90;99.90;;;;;;5000543;28;19956;-59
2021/01/20 01:33:04;;;;;;;;;;;11.90;99.90;;;;;;4997157;28;20293;-59
2021/01/20 01:35:31;;;;;;;;;;;11.90;99.90;;;;;;5016255;28;19932;-59
2021/01/20 01:37:57;;;;;;;;;;;11.90;99.90;;;;;;4998880;28;20686;-60
2021/01/20 01:40:24;;;;;;;;;;;12.00;99.90;;;;;;5001162;28;19940;-60
2021/01/20 01:42:51;;;;;;;;;;;12.00;99.90;;;;;;5000008;28;19932;-59
2021/01/20 01:45:18;;;;;;;;;;;12.00;99.90;;;;;;4993684;28;19948;-59
2021/01/20 01:47:45;;;;;;;;;;;12.00;99.90;;;;;;5000790;28;20318;-60
2021/01/20 01:50:12;;;;;;;;;;;12.00;99.90;;;;;;5001118;28;20389;-60
2021/01/20 01:52:39;;;;;;;;;;;12.00;99.90;;;;;;5013972;28;19929;-60
2021/01/20 01:55:07;;;;;;;;;;;12.00;99.90;;;;;;5013324;28;20345;-59
2021/01/20 01:57:36;;;;;;;;;;;12.00;99.90;;;;;;4989183;28;19930;-59
2021/01/20 02:00:03;;;;;;;;;;;12.00;99.90;;;;;;4999483;28;19929;-60
2021/01/20 02:02:30;;;;;;;;;;;12.00;99.90;;;;;;4998755;28;19926;-59
2021/01/20 02:04:57;;;;;;;;;;;12.00;99.90;;;;;;4981407;28;19940;-60
2021/01/20 02:07:26;;;;;;;;;;;12.00;99.90;;;;;;5002410;28;19940;-59
2021/01/20 02:09:53;;;;;;;;;;;12.00;99.90;;;;;;5000322;28;19936;-59
2021/01/20 02:12:34;;;;;;;;;;;12.00;99.90;;;;;;4994379;28;19925;-60
2021/01/20 02:15:02;;;;;;;;;;;12.00;99.90;;;;;;4997363;28;19925;-60
2021/01/20 02:17:33;;;;;;;;;;;12.00;99.90;;;;;;4999035;28;19933;-59
2021/01/20 02:20:20;;;;;;;;;;;12.00;99.90;;;;;;4999445;28;19926;-59
2021/01/20 02:22:51;;;;;;;;;;;11.90;99.90;;;;;;5015647;28;19944;-59
2021/01/20 02:25:27;;;;;;;;;;;11.90;99.90;;;;;;5002878;28;20342;-59
2021/01/20 02:27:55;;;;;;;;;;;11.90;99.90;;;;;;5000373;28;19976;-60
2021/01/20 02:30:24;;;;;;;;;;;11.90;99.90;;;;;;5000331;28;20040;-59
2021/01/20 02:32:52;;;;;;;;;;;11.90;99.90;;;;;;4982244;28;20270;-59
2021/01/20 02:35:19;;;;;;;;;;;11.90;99.90;;;;;;4979329;28;19925;-59
2021/01/20 02:37:46;;;;;;;;;;;11.90;99.90;;;;;;4980480;28;20428;-59
2021/01/20 02:40:14;;;;;;;;;;;11.90;99.90;;;;;;4997884;28;19933;-59
2021/01/20 02:42:41;;;;;;;;;;;11.90;99.90;;;;;;5018593;28;20425;-59
2021/01/20 02:45:08;;;;;;;;;;;11.90;99.90;;;;;;5007094;28;19940;-59
2021/01/20 02:47:36;;;;;;;;;;;11.90;99.90;;;;;;5016016;28;19925;-60
2021/01/20 02:50:03;;;;;;;;;;;11.90;99.90;;;;;;5018468;28;19932;-59
2021/01/20 02:52:32;;;;;;;;;;;11.90;99.90;;;;;;5021445;28;19929;-60
2021/01/20 02:55:01;;;;;;;;;;;11.90;99.90;;;;;;4984808;28;19932;-59
2021/01/20 02:57:29;;;;;;;;;;;11.90;99.90;;;;;;5002335;28;19930;-60
2021/01/20 02:59:57;;;;;;;;;;;11.90;99.90;;;;;;5005193;28;19929;-59
2021/01/20 03:02:24;;;;;;;;;;;11.80;99.90;;;;;;5006598;28;19934;-59
2021/01/20 03:04:53;;;;;;;;;;;11.80;99.90;;;;;;5004515;28;19929;-59
2021/01/20 03:07:21;;;;;;;;;;;11.80;99.90;;;;;;4997375;28;19940;-59
2021/01/20 03:09:48;;;;;;;;;;;11.90;99.90;;;;;;5003680;28;19977;-60
2021/01/20 03:12:15;;;;;;;;;;;11.80;99.90;;;;;;5001077;28;19936;-60
2021/01/20 03:14:43;;;;;;;;;;;11.80;99.90;;;;;;4999554;28;19929;-59
2021/01/20 03:17:10;;;;;;;;;;;11.80;99.90;;;;;;5003929;28;19929;-59
2021/01/20 03:19:36;;;;;;;;;;;11.80;99.90;;;;;;5016913;28;19933;-59
2021/01/20 03:22:04;;;;;;;;;;;11.80;99.90;;;;;;5000900;28;19933;-59
2021/01/20 03:24:31;;;;;;;;;;;11.80;99.90;;;;;;5002603;28;19925;-60
2021/01/20 03:26:57;;;;;;;;;;;11.80;99.90;;;;;;4998470;28;19934;-60
2021/01/20 03:29:24;;;;;;;;;;;11.80;99.90;;;;;;5002429;28;19971;-59
2021/01/20 03:31:51;;;;;;;;;;;11.80;99.90;;;;;;4985738;28;19978;-59
2021/01/20 03:34:17;;;;;;;;;;;11.90;99.90;;;;;;4999367;28;19929;-60
2021/01/20 03:36:44;;;;;;;;;;;11.90;99.90;;;;;;5014860;28;19925;-59
2021/01/20 03:39:12;;;;;;;;;;;11.90;99.90;;;;;;4984555;28;19936;-60
2021/01/20 03:41:38;;;;;;;;;;;12.00;99.90;;;;;;5001768;28;19937;-59
2021/01/20 03:44:05;;;;;;;;;;;11.90;99.90;;;;;;5016359;28;19946;-60
2021/01/20 03:46:32;;;;;;;;;;;11.90;99.90;;;;;;5001654;28;19925;-59
2021/01/20 03:48:59;;;;;;;;;;;12.00;99.90;;;;;;5000821;28;19933;-59
2021/01/20 03:51:28;;;;;;;;;;;12.00;99.90;;;;;;4999924;28;19979;-59
2021/01/20 03:53:55;;;;;;;;;;;12.00;99.90;;;;;;5016781;28;20020;-60
2021/01/20 03:56:22;;;;;;;;;;;11.90;99.90;;;;;;5013298;28;19925;-60
2021/01/20 03:58:49;;;;;;;;;;;12.00;99.90;;;;;;4983554;28;20408;-59
2021/01/20 04:01:16;;;;;;;;;;;11.90;99.90;;;;;;4997859;28;19982;-59
2021/01/20 04:03:42;;;;;;;;;;;12.00;99.90;;;;;;4988439;28;19932;-59
2021/01/20 04:06:10;;;;;;;;;;;11.90;99.90;;;;;;4988700;28;19959;-59
2021/01/20 04:08:36;;;;;;;;;;;11.90;99.90;;;;;;5002237;28;19933;-60
2021/01/20 04:11:03;;;;;;;;;;;11.90;99.90;;;;;;4999195;28;20633;-59
2021/01/20 04:13:31;;;;;;;;;;;11.90;99.90;;;;;;4999718;28;19926;-60
2021/01/20 04:15:57;;;;;;;;;;;11.90;99.90;;;;;;4996702;28;19933;-60
2021/01/20 04:18:24;;;;;;;;;;;11.90;99.90;;;;;;5016941;28;19933;-60
2021/01/20 04:20:51;;;;;;;;;;;11.90;99.90;;;;;;5001002;28;20343;-59
2021/01/20 04:23:18;;;;;;;;;;;11.90;99.90;;;;;;4998418;28;19933;-59
2021/01/20 04:25:44;;;;;;;;;;;11.90;99.90;;;;;;4998330;28;19925;-59
2021/01/20 04:28:11;;;;;;;;;;;11.90;99.90;;;;;;4998866;28;19928;-60
2021/01/20 04:30:38;;;;;;;;;;;11.90;99.90;;;;;;4995110;28;19976;-59
2021/01/20 04:33:05;;;;;;;;;;;11.90;99.90;;;;;;5002695;28;19932;-60
2021/01/20 04:35:32;;;;;;;;;;;11.90;99.90;;;;;;5015374;28;20018;-59
2021/01/20 04:37:58;;;;;;;;;;;11.90;99.90;;;;;;4982139;28;19940;-59
2021/01/20 04:40:25;;;;;;;;;;;11.90;99.90;;;;;;4999215;28;19925;-59
2021/01/20 04:42:52;;;;;;;;;;;11.80;99.90;;;;;;4996522;28;20019;-59
2021/01/20 04:45:19;;;;;;;;;;;11.90;99.90;;;;;;4995145;28;19979;-60
2021/01/20 04:47:47;;;;;;;;;;;11.80;99.90;;;;;;5014470;28;19990;-59
2021/01/20 04:50:14;;;;;;;;;;;11.80;99.90;;;;;;4999171;28;19925;-59
2021/01/20 04:52:43;;;;;;;;;;;11.80;99.90;;;;;;4986371;28;19925;-59
2021/01/20 04:55:10;;;;;;;;;;;11.80;99.90;;;;;;4997262;28;19933;-60
2021/01/20 04:57:37;;;;;;;;;;;11.80;99.90;;;;;;5020902;28;19929;-59
2021/01/20 05:00:05;;;;;;;;;;;11.80;99.90;;;;;;4998245;28;19934;-60
2021/01/20 05:02:33;;;;;;;;;;;11.80;99.90;;;;;;4997160;28;19929;-59
2021/01/20 05:05:00;;;;;;;;;;;11.80;99.90;;;;;;4995007;28;19935;-59
2021/01/20 05:07:27;;;;;;;;;;;11.80;99.90;;;;;;4984883;28;20039;-59
2021/01/20 05:09:54;;;;;;;;;;;11.80;99.90;;;;;;4999498;28;21455;-59
2021/01/20 05:12:34;;;;;;;;;;;11.80;99.90;;;;;;4993297;28;19983;-59
2021/01/20 05:15:03;;;;;;;;;;;11.80;99.90;;;;;;5014013;28;19940;-59
2021/01/20 05:17:29;;;;;;;;;;;11.80;99.90;;;;;;5013886;28;19929;-59
2021/01/20 05:19:56;;;;;;;;;;;11.80;99.90;;;;;;4977127;28;19929;-59
2021/01/20 05:22:23;;;;;;;;;;;11.80;99.90;;;;;;5123440;22;19979;-78
2021/01/20 05:24:57;;;;;;;;;;;11.80;99.90;;;;;;5026278;28;19925;-79
2021/01/20 05:27:26;;;;;;;;;;;11.80;99.90;;;;;;5039184;28;19928;-78
2021/01/20 05:30:04;;;;;;;;;;;11.80;99.90;;;;;;5058767;28;19931;-79
2021/01/20 05:32:33;;;;;;;;;;;11.80;99.90;;;;;;5051334;28;19972;-78
2021/01/20 05:35:01;;;;;;;;;;;11.80;99.90;;;;;;5039959;28;19924;-76
2021/01/20 05:37:44;;;;;;;;;;;11.80;99.90;;;;;;5040027;28;19967;-78
2021/01/20 05:40:11;;;;;;;;;;;11.80;99.90;;;;;;5055726;28;19928;-78
2021/01/20 05:42:52;;;;;;;;;;;11.80;99.90;;;;;;5043238;28;19990;-78
2021/01/20 05:45:19;;;;;;;;;;;11.80;99.90;;;;;;5039171;28;19925;-78
2021/01/20 05:48:02;;;;;;;;;;;11.80;99.90;;;;;;5051002;28;20027;-78
2021/01/20 05:50:28;;;;;;;;;;;11.80;99.90;;;;;;5052956;28;19925;-80
2021/01/20 05:53:09;;;;;;;;;;;11.80;99.90;;;;;;5020656;28;19955;-79
2021/01/20 05:55:35;;;;;;;;;;;11.80;99.90;;;;;;5057747;28;19925;-79
2021/01/20 05:58:02;;;;;;;;;;;11.80;99.90;;;;;;5036845;28;19931;-79
2021/01/20 06:00:29;;;;;;;;;;;11.80;99.90;;;;;;5038655;28;20015;-79
2021/01/20 06:02:56;;;;;;;;;;;11.80;99.90;;;;;;5035690;28;19928;-79
2021/01/20 06:05:23;;;;;;;;;;;11.80;99.90;;;;;;5019594;28;19928;-80
2021/01/20 06:07:51;;;;;;;;;;;11.80;99.90;;;;;;5019425;28;19959;-79
2021/01/20 06:10:19;;;;;;;;;;;11.80;99.90;;;;;;5054833;28;19929;-79
2021/01/20 06:12:45;;;;;;;;;;;11.80;99.90;;;;;;5032285;28;20067;-78
2021/01/20 06:15:13;;;;;;;;;;;11.80;99.90;;;;;;5039237;28;19939;-78
2021/01/20 06:17:43;;;;;;;;;;;11.80;99.90;;;;;;5038910;28;19990;-77
2021/01/20 06:20:10;;;;;;;;;;;11.80;99.90;;;;;;5041283;28;20060;-76
2021/01/20 06:22:40;;;;;;;;;;;11.80;99.90;;;;;;5042030;28;19928;-77
2021/01/20 06:25:12;;;;;;;;;;;11.80;99.90;;;;;;5042370;28;20008;-76
2021/01/20 06:27:42;;;;;;;;;;;11.80;99.90;;;;;;5060748;28;19925;-77
2021/01/20 06:30:11;;;;;;;;;;;11.80;99.90;;;;;;5041602;28;19928;-76
2021/01/20 06:32:41;;;;;;;;;;;11.80;99.90;;;;;;5041419;28;19933;-76
2021/01/20 06:35:08;;;;;;;;;;;11.80;99.90;;;;;;5042211;28;19925;-76
2021/01/20 06:37:36;;;;;;;;;;;11.80;99.90;;;;;;5047933;28;20329;-76
2021/01/20 06:40:20;;;;;;;;;;;11.80;99.90;;;;;;5045122;28;19924;-77
2021/01/20 06:42:48;;;;;;;;;;;11.80;99.90;;;;;;5057002;28;19929;-77
2021/01/20 06:45:18;;;;;;;;;;;11.80;99.90;;;;;;5020185;28;19925;-77
2021/01/20 06:48:01;;;;;;;;;;;11.80;99.90;;;;;;5043011;28;20329;-77
2021/01/20 06:50:29;;;;;;;;;;;11.80;99.90;;;;;;5062096;28;19925;-77
2021/01/20 06:53:05;;;;;;;;;;;11.80;99.90;;;;;;5042467;28;19925;-77
2021/01/20 06:55:36;;;;;;;;;;;11.80;99.90;;;;;;5044160;28;20015;-77
2021/01/20 06:58:19;;;;;;;;;;;11.80;99.90;;;;;;5043047;28;19925;-77
2021/01/20 07:01:10;;;;;;;;;;;11.80;99.90;;;;;;5046111;28;19992;-77
2021/01/20 07:03:48;;;;;;;;;;;11.80;99.90;;;;;;5045704;28;19947;-77
2021/01/20 07:06:37;;;;;;;;;;;11.80;99.90;;;;;;5044744;28;19950;-79
2021/01/20 07:09:09;;;;;;;;;;;11.80;99.90;;;;;;5060153;28;19924;-79
2021/01/20 07:11:50;;;;;;;;;;;11.80;99.90;;;;;;5045738;28;19979;-79
2021/01/20 07:14:36;;;;;;;;;;;11.80;99.90;;;;;;5044046;28;19924;-79
2021/01/20 07:17:06;;;;;;;;;;;11.80;99.90;;;;;;5063486;28;19950;-78
2021/01/20 07:19:46;;;;;;;;;;;11.80;99.90;;;;;;5045480;28;20596;-78
2021/01/20 07:22:12;;;;;;;;;;;11.80;99.90;;;;;;5025984;28;19973;-78
2021/01/20 07:25:02;;;;;;;;;;;11.80;99.90;;;;;;5045415;28;19925;-78
2021/01/20 07:27:47;;;;;;;;;;;11.80;99.90;;;;;;5041662;28;19981;-79
2021/01/20 07:30:14;;;;;;;;;;;11.80;99.90;;;;;;5044694;28;19929;-78
2021/01/20 07:32:41;;;;;;;;;;;11.80;99.90;;;;;;5045535;28;19935;-78
2021/01/20 07:35:40;;;;;;;;;;;11.80;99.90;;;;;;5043837;28;20366;-81
2021/01/20 07:38:09;;;;;;;;;;;11.80;99.90;;;;;;5045558;28;19988;-77
2021/01/20 07:40:38;;;;;;;;;;;11.80;99.90;;;;;;5044136;28;20029;-77
2021/01/20 07:43:05;;;;;;;;;;;11.80;99.90;;;;;;5060156;28;20290;-77
2021/01/20 07:45:37;;;;;;;;;;;11.80;99.90;;;;;;5025532;28;19932;-77
2021/01/20 07:48:05;;;;;;;;;;;11.80;99.90;;;;;;5057011;28;19984;-77
2021/01/20 07:50:39;;;;;;;;;;;11.80;99.90;;;;;;5041910;28;19925;-77
2021/01/20 07:53:06;;;;;;;;;;;11.80;99.90;;;;;;5041789;28;19931;-77
2021/01/20 07:55:34;;;;;;;;;;;11.80;99.90;;;;;;5042522;28;19925;-77
2021/01/20 07:58:02;;;;;;;;;;;11.80;99.90;;;;;;5038748;28;20522;-77
2021/01/20 08:00:30;;;;;;;;;;;11.80;99.90;;;;;;5040840;28;19937;-77
2021/01/20 08:03:00;;;;;;;;;;;11.80;99.90;;;;;;5043139;28;19940;-77
2021/01/20 08:05:35;;;;;;;;;;;11.80;99.90;;;;;;5050465;28;19932;-77
2021/01/20 08:08:06;;;;;;;;;;;11.80;99.90;;;;;;5057278;28;19925;-78
2021/01/20 08:10:34;;;;;;;;;;;11.80;99.90;;;;;;5044180;28;21920;-77
2021/01/20 08:13:00;;;;;;;;;;;11.80;99.90;;;;;;5060313;28;19924;-77
2021/01/20 08:15:28;;;;;;;;;;;11.80;99.90;;;;;;5057402;28;19936;-78
2021/01/20 08:17:55;;;;;;;;;;;11.80;99.90;;;;;;5026622;28;19939;-77
2021/01/20 08:20:22;;;;;;;;;;;11.80;99.90;;;;;;5044769;28;19925;-77
2021/01/20 08:22:50;;;;;;;;;;;11.80;99.90;;;;;;5043663;28;19935;-77
2021/01/20 08:25:20;;;;;;;;;;;11.80;99.90;;;;;;5042701;28;19935;-77
2021/01/20 08:27:48;;;;;;;;;;;11.80;99.90;;;;;;5045141;28;19928;-77
2021/01/20 08:30:20;;;;;;;;;;;11.80;99.90;;;;;;5043478;28;20332;-77
2021/01/20 08:32:56;;;;;;;;;;;11.80;99.90;;;;;;5043955;28;20007;-77
2021/01/20 08:35:29;;;;;;;;;;;11.80;99.90;;;;;;5044201;28;19928;-77
2021/01/20 08:38:03;;;;;;;;;;;11.80;99.90;;;;;;5057220;28;21340;-78
2021/01/20 08:40:30;;;;;;;;;;;11.80;99.90;;;;;;5042893;28;20405;-77
2021/01/20 08:43:02;;;;;;;;;;;11.80;99.90;;;;;;5042676;28;19929;-77
2021/01/20 08:45:33;;;;;;;;;;;11.80;99.90;;;;;;5056245;28;19925;-77
2021/01/20 08:48:08;;;;;;;;;;;11.80;99.90;;;;;;5059513;28;19927;-77
2021/01/20 08:50:39;;;;;;;;;;;11.80;99.90;;;;;;5058816;28;19992;-77
2021/01/20 08:53:09;;;;;;;;;;;11.80;99.90;;;;;;5037381;28;19925;-78
2021/01/20 08:55:37;;;;;;;;;;;11.80;99.90;;;;;;5045726;28;20005;-77
2021/01/20 08:58:24;;;;;;;;;;;11.80;99.90;;;;;;5023705;28;19932;-78
2021/01/20 09:00:52;;;;;;;;;;;11.80;99.90;;;;;;5043397;28;19925;-77
2021/01/20 09:03:19;;;;;;;;;;;11.80;99.90;;;;;;5039733;28;19931;-77
2021/01/20 09:05:47;;;;;;;;;;;11.80;99.90;;;;;;5041835;28;19929;-76
2021/01/20 09:08:14;;;;;;;;;;;11.80;99.90;;;;;;5025037;28;19924;-77
2021/01/20 09:10:41;;;;;;;;;;;11.80;99.90;;;;;;5026212;28;20031;-77
2021/01/20 09:13:17;;;;;;;;;;;11.80;99.90;;;;;;5042193;28;19925;-77
2021/01/20 09:15:54;;;;;;;;;;;11.80;99.90;;;;;;5054595;28;19951;-77
2021/01/20 09:18:28;;;;;;;;;;;11.80;99.90;;;;;;5026126;28;20640;-78
2021/01/20 09:20:55;;;;;;;;;;;11.80;99.90;;;;;;5044841;28;19929;-77
2021/01/20 09:23:22;;;;;;;;;;;11.80;99.90;;;;;;5044275;28;20831;-77
2021/01/20 09:25:49;;;;;;;;;;;11.80;99.90;;;;;;5043323;28;19925;-77
2021/01/20 09:28:18;;;;;;;;;;;11.80;99.90;;;;;;5045338;28;19928;-77
2021/01/20 09:30:47;;;;;;;;;;;11.80;99.90;;;;;;5038369;28;19940;-77
2021/01/20 09:33:15;;;;;;;;;;;11.80;99.90;;;;;;5042383;28;19972;-77
2021/01/20 09:35:43;;;;;;;;;;;11.80;99.90;;;;;;5041264;28;19925;-77
2021/01/20 09:38:12;;;;;;;;;;;11.80;99.90;;;;;;5040214;28;19932;-77
2021/01/20 09:40:48;;;;;;;;;;;11.80;99.90;;;;;;5037620;28;19924;-77
2021/01/20 09:43:16;;;;;;;;;;;11.80;99.90;;;;;;5041442;28;19932;-77
2021/01/20 09:45:45;;;;;;;;;;;11.80;99.90;;;;;;5024681;28;19931;-80
2021/01/20 09:48:16;;;;;;;;;;;11.80;99.90;;;;;;5043175;28;19925;-80
2021/01/20 09:54:04;;;;;;;;;;;11.80;99.90;;;;;;5067657;28;19919;-80
2021/01/20 09:56:32;;;;;;;;;;;11.80;99.90;;;;;;5045849;28;19925;-80
2021/01/20 09:58:59;;;;;;;;;;;11.80;99.90;;;;;;5031318;28;19947;-79
2021/01/20 10:01:25;;;;;;;;;;;11.80;99.90;;;;;;5063437;28;19931;-79
2021/01/20 10:03:54;;;;;;;;;;;11.80;99.90;;;;;;5049255;28;19924;-79
2021/01/20 10:06:21;;;;;;;;;;;11.80;99.90;;;;;;5050791;28;19925;-80
2021/01/20 10:08:47;;;;;;;;;;;11.80;99.90;;;;;;5029892;28;19929;-80
2021/01/20 10:14:26;;;;;;;;;;;11.80;99.90;;;;;;5067688;28;19939;-80
2021/01/20 10:17:00;;;;;;;;;;;11.80;99.90;;;;;;5046885;28;19939;-80
2021/01/20 10:19:31;;;;;;;;;;;11.80;99.90;;;;;;5044237;28;19935;-80
2021/01/20 10:21:57;;;;;;;;;;;11.80;99.90;;;;;;5048677;28;19980;-79
2021/01/20 10:24:24;;;;;;;;;;;11.80;99.90;;;;;;5045007;28;19936;-80
2021/01/20 10:26:50;;;;;;;;;;;11.80;99.90;;;;;;5046935;28;19925;-80
2021/01/20 10:29:18;;;;;;;;;;;11.80;99.90;;;;;;5049443;28;20047;-80
2021/01/20 10:31:47;;;;;;;;;;;11.80;99.90;;;;;;5047162;28;19925;-80
2021/01/20 10:34:15;;;;;;;;;;;11.80;99.90;;;;;;5045171;28;19932;-81
2021/01/20 10:36:52;;;;;;;;;;;11.80;99.90;;;;;;5043804;28;19935;-81
2021/01/20 10:42:24;;;;;;;;;;;11.80;99.90;;;;;;5062403;28;19943;-80
2021/01/20 10:50:51;;;;;;;;;;;11.80;99.90;;;;;;5066813;28;19960;-80
2021/01/20 10:56:17;;;;;;;;;;;11.80;99.90;;;;;;5067260;28;19928;-80
2021/01/20 10:58:43;;;;;;;;;;;11.80;99.90;;;;;;5045639;28;19924;-80
2021/01/20 11:01:10;;;;;;;;;;;11.80;99.90;;;;;;5060634;28;19931;-80
2021/01/20 11:03:38;;;;;;;;;;;11.90;99.90;;;;;;5048076;28;19964;-80
2021/01/20 11:09:17;;;;;;;;;;;12.00;99.90;;;;;;5066760;28;20366;-80
2021/01/20 11:11:49;;;;;;;;;;;12.00;99.90;;;;;;5027755;28;20586;-80
2021/01/20 11:14:15;;;;;;;;;;;12.00;99.90;;;;;;5048756;28;19925;-80
2021/01/20 11:16:56;;;;;;;;;;;12.00;99.90;;;;;;5064638;28;19925;-78
2021/01/20 11:22:25;;;;;;;;;;;12.00;99.90;;;;;;5059869;28;19939;-79
2021/01/20 11:28:08;;;;;;;;;;;12.00;99.90;;;;;;5067439;28;19975;-78
2021/01/20 11:33:40;;;;;;;;;;;12.00;99.90;;;;;;5067859;28;19924;-78
2021/01/20 11:36:09;;;;;;;;;;;12.00;99.90;;;;;;5043953;28;19931;-80
2021/01/20 11:38:49;;;;;;;;;;;12.00;99.90;;;;;;5042306;28;19924;-80
2021/01/20 11:41:15;;;;;;;;;;;12.00;99.90;;;;;;5056736;28;19943;-78
2021/01/20 11:43:44;;;;;;;;;;;12.00;99.90;;;;;;5060819;28;19937;-78
2021/01/20 11:46:13;;;;;;;;;;;12.00;99.90;;;;;;5026799;28;19932;-78
2021/01/20 11:48:39;;;;;;;;;;;12.00;99.90;;;;;;5060537;28;19931;-77
2021/01/20 11:51:09;;;;;;;;;;;12.00;99.90;;;;;;5041015;28;19986;-80
2021/01/20 11:53:36;;;;;;;;;;;12.00;99.90;;;;;;5041066;28;19925;-79
2021/01/20 11:56:05;;;;;;;;;;;12.00;99.90;;;;;;5023827;28;19954;-80
2021/01/20 11:58:32;;;;;;;;;;;12.00;99.90;;;;;;5046504;28;19925;-80
2021/01/20 12:01:22;;;;;;;;;;;12.00;99.90;;;;;;5026188;28;19936;-80
2021/01/20 12:03:50;;;;;;;;;;;11.90;99.90;;;;;;5044272;28;19925;-80
2021/01/20 12:06:17;;;;;;;;;;;11.90;99.90;;;;;;5041074;28;19929;-80
2021/01/20 12:08:43;;;;;;;;;;;11.90;99.90;;;;;;5044023;28;19925;-80
2021/01/20 12:11:10;;;;;;;;;;;11.90;99.90;;;;;;5059492;28;19925;-80
2021/01/20 12:13:41;;;;;;;;;;;11.90;99.90;;;;;;5042532;28;20448;-80
2021/01/20 12:16:15;;;;;;;;;;;11.90;99.90;;;;;;5061172;28;19935;-80
2021/01/20 12:18:47;;;;;;;;;;;11.90;99.90;;;;;;5060319;28;19925;-79
2021/01/20 12:21:16;;;;;;;;;;;11.90;99.90;;;;;;5024912;28;20264;-80
2021/01/20 12:23:43;;;;;;;;;;;11.90;99.90;;;;;;5042593;28;19933;-80
2021/01/20 12:26:11;;;;;;;;;;;11.90;99.90;;;;;;5043158;28;19929;-81
2021/01/20 12:28:43;;;;;;;;;;;11.90;99.90;;;;;;5061981;28;19932;-78
2021/01/20 12:31:10;;;;;;;;;;;11.90;99.90;;;;;;5024935;28;19924;-80
2021/01/20 12:33:38;;;;;;;;;;;11.90;99.90;;;;;;5037785;28;21517;-81
2021/01/20 12:36:05;;;;;;;;;;;11.90;99.90;;;;;;5042599;28;19925;-80
2021/01/20 12:38:32;;;;;;;;;;;11.90;99.90;;;;;;5024784;28;19924;-80
2021/01/20 12:40:59;;;;;;;;;;;11.90;99.90;;;;;;5056347;28;19936;-80
2021/01/20 12:43:26;;;;;;;;;;;11.90;99.90;;;;;;5025391;28;19932;-79
2021/01/20 12:45:53;;;;;;;;;;;11.90;99.90;;;;;;5055695;28;19925;-80
2021/01/20 12:48:21;;;;;;;;;;;11.90;99.90;;;;;;5022707;28;19936;-80
2021/01/20 12:50:47;;;;;;;;;;;11.90;99.90;;;;;;5044657;28;19940;-79
2021/01/20 12:53:14;;;;;;;;;;;11.90;99.90;;;;;;5039446;28;19947;-80
2021/01/20 12:55:44;;;;;;;;;;;11.90;99.90;;;;;;5044137;28;19939;-80
2021/01/20 12:58:12;;;;;;;;;;;11.90;99.90;;;;;;5045010;28;19925;-80
2021/01/20 13:00:39;;;;;;;;;;;11.90;99.90;;;;;;5040079;28;19925;-80
2021/01/20 13:03:05;;;;;;;;;;;11.90;99.90;;;;;;5053392;28;20367;-80
2021/01/20 13:05:33;;;;;;;;;;;11.90;99.90;;;;;;5041369;28;19925;-80
2021/01/20 13:08:00;;;;;;;;;;;11.90;99.90;;;;;;5041816;28;19931;-80
2021/01/20 13:10:27;;;;;;;;;;;11.90;99.90;;;;;;5035563;28;19924;-80
2021/01/20 13:12:53;;;;;;;;;;;11.90;99.90;;;;;;5038327;28;19925;-80
2021/01/20 13:15:23;;;;;;;;;;;11.90;99.90;;;;;;5036753;28;19925;-80
2021/01/20 13:17:49;;;;;;;;;;;11.90;99.90;;;;;;5061181;28;19924;-80
2021/01/20 13:20:16;;;;;;;;;;;11.90;99.90;;;;;;5045456;28;19970;-80
2021/01/20 13:22:42;;;;;;;;;;;11.90;99.90;;;;;;5036397;28;19928;-80
2021/01/20 13:25:10;;;;;;;;;;;11.90;99.90;;;;;;5023410;28;19931;-80
2021/01/20 13:27:37;;;;;;;;;;;11.90;99.90;;;;;;5022296;28;20011;-81
2021/01/20 13:30:07;;;;;;;;;;;11.90;99.90;;;;;;5020719;28;19932;-81
2021/01/20 13:32:35;;;;;;;;;;;11.90;99.90;;;;;;5037739;28;19924;-80
2021/01/20 13:35:02;;;;;;;;;;;11.90;99.90;;;;;;5040457;28;19964;-80
2021/01/20 13:37:29;;;;;;;;;;;11.90;99.90;;;;;;5053315;28;19935;-78
2021/01/20 13:39:57;;;;;;;;;;;11.90;99.90;;;;;;5021608;28;19936;-78
2021/01/20 13:42:24;;;;;;;;;;;11.90;99.90;;;;;;5052709;28;19936;-79
2021/01/20 13:44:51;;;;;;;;;;;11.90;99.90;;;;;;5025415;28;19932;-79
2021/01/20 13:47:17;;;;;;;;;;;11.90;99.90;;;;;;5042109;28;19948;-79
2021/01/20 13:49:45;;;;;;;;;;;11.90;99.90;;;;;;5042636;28;20345;-79
2021/01/20 13:52:12;;;;;;;;;;;11.90;99.90;;;;;;5040318;28;19928;-79
2021/01/20 13:54:39;;;;;;;;;;;11.90;99.90;;;;;;5018921;28;19989;-79
2021/01/20 13:57:07;;;;;;;;;;;11.90;99.90;;;;;;5039018;28;20375;-79
2021/01/20 13:59:34;;;;;;;;;;;11.90;99.90;;;;;;5022136;28;19925;-80
2021/01/20 14:02:05;;;;;;;;;;;11.90;99.90;;;;;;5052559;28;19984;-80
2021/01/20 14:04:31;;;;;;;;;;;11.90;99.90;;;;;;5037117;28;19925;-79
2021/01/20 14:06:59;;;;;;;;;;;11.90;99.90;;;;;;5040512;28;19951;-79
2021/01/20 14:09:26;;;;;;;;;;;11.90;99.90;;;;;;5040485;28;19931;-79
2021/01/20 14:11:53;;;;;;;;;;;11.90;99.90;;;;;;5029561;28;19925;-79
2021/01/20 14:14:20;;;;;;;;;;;11.90;99.90;;;;;;5038371;28;20020;-79
2021/01/20 14:16:47;;;;;;;;;;;11.90;99.90;;;;;;5038731;28;19939;-79
2021/01/20 14:19:14;;;;;;;;;;;11.90;99.90;;;;;;5022649;28;20487;-80
2021/01/20 14:21:42;;;;;;;;;;;11.90;99.90;;;;;;5022138;28;20719;-79
2021/01/20 14:24:10;;;;;;;;;;;11.90;99.90;;;;;;5026101;28;19988;-79
2021/01/20 14:26:37;;;;;;;;;;;11.90;99.90;;;;;;5043921;28;19924;-79
2021/01/20 14:29:05;;;;;;;;;;;11.90;99.90;;;;;;5023507;28;19989;-79
2021/01/20 14:31:37;;;;;;;;;;;11.90;99.90;;;;;;5039399;28;19946;-80
2021/01/20 14:34:07;;;;;;;;;;;11.90;99.90;;;;;;5037443;28;19924;-80
2021/01/20 14:36:35;;;;;;;;;;;11.90;99.90;;;;;;5038867;28;19992;-80
2021/01/20 14:39:02;;;;;;;;;;;11.90;99.90;;;;;;5025462;28;20493;-80
2021/01/20 14:41:30;;;;;;;;;;;11.90;99.90;;;;;;5042674;28;20272;-79
2021/01/20 14:44:00;;;;;;;;;;;11.90;99.90;;;;;;5037313;28;19929;-80
2021/01/20 14:46:26;;;;;;;;;;;11.90;99.90;;;;;;5027290;28;19975;-80
2021/01/20 14:48:53;;;;;;;;;;;11.90;99.90;;;;;;5023690;28;19951;-80
2021/01/20 14:51:22;;;;;;;;;;;11.90;99.90;;;;;;5036059;28;19933;-80
2021/01/20 14:53:48;;;;;;;;;;;11.90;99.90;;;;;;5023582;28;19955;-80
2021/01/20 14:56:15;;;;;;;;;;;11.90;99.90;;;;;;5025813;28;19925;-80
2021/01/20 14:58:45;;;;;;;;;;;11.90;99.90;;;;;;5042004;28;19928;-80